createdAt,value
2023-04-07T00:00:05.701Z,100762.56
2023-04-07T00:02:33.125Z,100756.19
2023-04-07T00:04:59.733Z,100760.97
2023-04-07T00:07:26.477Z,100758.16
2023-04-07T00:09:52.921Z,100752.59
2023-04-07T00:12:19.516Z,100762.56
2023-04-07T00:14:46.269Z,100758.63
2023-04-07T00:17:12.625Z,100753.84
2023-04-07T00:19:39.012Z,100758.63
2023-04-07T00:22:05.362Z,100755.50
2023-04-07T00:24:34.725Z,100751.53
2023-04-07T00:27:02.230Z,100757.56
2023-04-07T00:29:28.640Z,100748.84
2023-04-07T00:31:55.215Z,100749.66
2023-04-07T00:34:21.600Z,100752.06
2023-04-07T00:36:52.300Z,100745.31
2023-04-07T00:39:19.278Z,100746.94
2023-04-07T00:41:46.226Z,100743.81
2023-04-07T00:44:13.624Z,100735.78
2023-04-07T00:46:41.248Z,100740.56
2023-04-07T00:49:09.867Z,100738.56
2023-04-07T00:51:37.739Z,100733.00
2023-04-07T00:54:04.142Z,100736.03
2023-04-07T00:56:30.859Z,100727.41
2023-04-07T00:58:57.258Z,100737.06
2023-04-07T01:01:30.888Z,100730.19
2023-04-07T01:04:15.469Z,100728.25
2023-04-07T01:06:48.409Z,100723.09
2023-04-07T01:09:25.615Z,100722.28
2023-04-07T01:11:58.202Z,100721.50
2023-04-07T01:14:25.701Z,100721.13
2023-04-07T01:16:55.626Z,100728.69
2023-04-07T01:19:34.151Z,100714.28
2023-04-07T01:22:01.959Z,100724.28
2023-04-07T01:25:06.731Z,100713.38
2023-04-07T01:28:00.889Z,100718.97
2023-04-07T01:30:33.419Z,100715.00
2023-04-07T01:33:01.947Z,100719.41
2023-04-07T01:35:31.030Z,100702.66
2023-04-07T01:37:58.373Z,100709.16
2023-04-07T01:40:25.810Z,100712.31
2023-04-07T01:42:52.998Z,100707.06
2023-04-07T01:45:20.672Z,100698.25
2023-04-07T01:47:47.714Z,100709.78
2023-04-07T01:50:14.953Z,100701.84
2023-04-07T01:52:42.521Z,100704.28
2023-04-07T01:55:11.175Z,100708.72
2023-04-07T01:57:37.589Z,100711.13
2023-04-07T02:00:05.023Z,100714.72
2023-04-07T02:02:36.719Z,100702.75
2023-04-07T02:05:06.121Z,100710.41
2023-04-07T02:07:42.891Z,100700.88
2023-04-07T02:10:13.432Z,100702.13
2023-04-07T02:12:41.333Z,100708.19
2023-04-07T02:15:11.286Z,100701.44
2023-04-07T02:17:54.514Z,100706.22
2023-04-07T02:20:22.342Z,100709.91
2023-04-07T02:22:48.906Z,100707.94
2023-04-07T02:25:32.644Z,100699.88
2023-04-07T02:28:00.913Z,100700.69
2023-04-07T02:30:28.011Z,100698.38
2023-04-07T02:32:54.691Z,100697.91
2023-04-07T02:35:21.596Z,100695.94
2023-04-07T02:37:48.400Z,100704.31
2023-04-07T02:40:14.948Z,100701.53
2023-04-07T02:42:41.614Z,100699.56
2023-04-07T02:45:09.749Z,100700.69
2023-04-07T02:47:37.458Z,100702.69
2023-04-07T02:50:04.365Z,100701.06
2023-04-07T02:52:30.795Z,100696.66
2023-04-07T02:54:57.269Z,100701.44
2023-04-07T02:57:23.755Z,100699.81
2023-04-07T02:59:50.276Z,100697.03
2023-04-07T03:02:16.677Z,100690.63
2023-04-07T03:04:43.171Z,100697.84
2023-04-07T03:07:09.475Z,100700.97
2023-04-07T03:09:36.485Z,100705.41
2023-04-07T03:12:03.270Z,100700.97
2023-04-07T03:14:29.610Z,100703.31
2023-04-07T03:16:56.465Z,100692.50
2023-04-07T03:19:22.903Z,100707.28
2023-04-07T03:21:49.302Z,100698.91
2023-04-07T03:24:15.757Z,100697.28
2023-04-07T03:26:42.318Z,100698.09
2023-04-07T03:29:09.003Z,100705.66
2023-04-07T03:31:37.343Z,100698.09
2023-04-07T03:34:04.784Z,100703.69
2023-04-07T03:36:31.808Z,100701.22
2023-04-07T03:38:58.736Z,100709.97
2023-04-07T03:41:25.258Z,100700.78
2023-04-07T03:43:51.938Z,100702.75
2023-04-07T03:46:21.142Z,100703.94
2023-04-07T03:48:47.810Z,100705.91
2023-04-07T03:51:14.282Z,100703.94
2023-04-07T03:53:41.789Z,100702.28
2023-04-07T03:56:08.691Z,100702.28
2023-04-07T03:58:35.111Z,100702.66
2023-04-07T04:01:01.536Z,100703.03
2023-04-07T04:03:28.064Z,100707.31
2023-04-07T04:05:54.886Z,100711.28
2023-04-07T04:08:21.694Z,100707.25
2023-04-07T04:10:48.041Z,100713.97
2023-04-07T04:13:14.451Z,100706.78
2023-04-07T04:15:41.207Z,100713.53
2023-04-07T04:18:08.854Z,100710.72
2023-04-07T04:20:35.366Z,100717.94
2023-04-07T04:23:02.282Z,100717.50
2023-04-07T04:25:29.000Z,100704.69
2023-04-07T04:27:55.962Z,100712.25
2023-04-07T04:30:22.434Z,100712.59
2023-04-07T04:32:49.558Z,100711.00
2023-04-07T04:35:17.603Z,100711.78
2023-04-07T04:37:44.230Z,100717.38
2023-04-07T04:40:11.588Z,100714.59
2023-04-07T04:42:37.960Z,100718.19
2023-04-07T04:45:04.774Z,100725.75
2023-04-07T04:47:31.763Z,100726.56
2023-04-07T04:49:58.297Z,100721.78
2023-04-07T04:52:24.893Z,100724.22
2023-04-07T04:54:51.366Z,100723.41
2023-04-07T04:57:17.933Z,100722.25
2023-04-07T04:59:44.354Z,100737.03
2023-04-07T05:02:11.230Z,100731.44
2023-04-07T05:04:37.811Z,100735.84
2023-04-07T05:07:07.406Z,100735.84
2023-04-07T05:09:33.934Z,100733.88
2023-04-07T05:12:01.766Z,100738.28
2023-04-07T05:14:28.471Z,100737.47
2023-04-07T05:16:54.818Z,100743.03
2023-04-07T05:19:21.245Z,100739.44
2023-04-07T05:21:47.848Z,100741.44
2023-04-07T05:24:14.450Z,100740.25
2023-04-07T05:26:41.238Z,100749.44
2023-04-07T05:29:07.678Z,100744.22
2023-04-07T05:31:37.469Z,100745.03
2023-04-07T05:34:03.990Z,100749.44
2023-04-07T05:36:31.651Z,100751.41
2023-04-07T05:38:58.826Z,100747.81
2023-04-07T05:41:25.568Z,100755.38
2023-04-07T05:43:53.130Z,100748.63
2023-04-07T05:46:19.845Z,100752.94
2023-04-07T05:48:49.407Z,100755.75
2023-04-07T05:51:16.140Z,100760.47
2023-04-07T05:53:42.487Z,100761.31
2023-04-07T05:56:08.801Z,100758.53
2023-04-07T05:58:35.513Z,100762.13
2023-04-07T06:01:02.113Z,100760.47
2023-04-07T06:03:30.083Z,100762.94
2023-04-07T06:06:01.679Z,100774.09
2023-04-07T06:08:28.057Z,100768.97
2023-04-07T06:10:55.006Z,100772.22
2023-04-07T06:13:21.420Z,100778.63
2023-04-07T06:15:50.006Z,100779.44
2023-04-07T06:18:16.603Z,100781.84
2023-04-07T06:20:42.964Z,100782.78
2023-04-07T06:23:09.991Z,100781.16
2023-04-07T06:25:36.372Z,100789.88
2023-04-07T06:28:03.177Z,100789.06
2023-04-07T06:30:29.698Z,100789.88
2023-04-07T06:32:56.215Z,100789.06
2023-04-07T06:35:22.838Z,100789.88
2023-04-07T06:37:49.340Z,100796.28
2023-04-07T06:40:15.957Z,100801.03
2023-04-07T06:42:42.535Z,100801.03
2023-04-07T06:45:10.026Z,100793.81
2023-04-07T06:47:36.392Z,100802.69
2023-04-07T06:50:02.863Z,100802.69
2023-04-07T06:52:29.334Z,100807.91
2023-04-07T06:54:55.710Z,100803.13
2023-04-07T06:57:23.276Z,100812.31
2023-04-07T06:59:49.867Z,100809.19
2023-04-07T07:02:16.696Z,100813.59
2023-04-07T07:04:43.436Z,100806.03
2023-04-07T07:07:09.812Z,100806.84
2023-04-07T07:09:36.625Z,100814.03
2023-04-07T07:12:04.376Z,100815.66
2023-04-07T07:14:32.146Z,100816.03
2023-04-07T07:16:58.759Z,100819.97
2023-04-07T07:19:25.470Z,100814.03
2023-04-07T07:21:51.906Z,100818.00
2023-04-07T07:24:18.545Z,100818.00
2023-04-07T07:26:46.116Z,100832.41
2023-04-07T07:29:12.807Z,100823.69
2023-04-07T07:31:39.314Z,100836.94
2023-04-07T07:34:06.048Z,100827.41
2023-04-07T07:36:32.672Z,100842.25
2023-04-07T07:39:01.060Z,100841.56
2023-04-07T07:41:27.628Z,100841.66
2023-04-07T07:43:54.386Z,100848.50
2023-04-07T07:46:20.812Z,100841.41
2023-04-07T07:48:47.243Z,100847.56
2023-04-07T07:51:13.583Z,100841.59
2023-04-07T07:53:40.052Z,100856.13
2023-04-07T07:56:06.665Z,100849.41
2023-04-07T07:58:32.993Z,100856.72
2023-04-07T08:00:59.321Z,100862.75
2023-04-07T08:03:26.161Z,100867.63
2023-04-07T08:05:52.634Z,100874.47
2023-04-07T08:08:19.262Z,100882.16
2023-04-07T08:10:47.293Z,100873.41
2023-04-07T08:13:13.630Z,100882.69
2023-04-07T08:15:40.524Z,100882.00
2023-04-07T08:18:07.447Z,100885.59
2023-04-07T08:20:34.409Z,100891.63
2023-04-07T08:23:02.412Z,100890.81
2023-04-07T08:25:29.310Z,100898.03
2023-04-07T08:27:56.009Z,100894.91
2023-04-07T08:30:23.165Z,100902.91
2023-04-07T08:32:50.974Z,100894.91
2023-04-07T08:35:17.338Z,100899.75
2023-04-07T08:37:44.446Z,100902.19
2023-04-07T08:40:11.928Z,100913.03
2023-04-07T08:42:43.681Z,100909.06
2023-04-07T08:45:10.561Z,100910.78
2023-04-07T08:47:38.027Z,100910.78
2023-04-07T08:50:07.546Z,100906.81
2023-04-07T08:52:55.488Z,100911.97
2023-04-07T08:55:23.987Z,100909.72
2023-04-07T08:57:51.162Z,100906.91
2023-04-07T09:00:18.812Z,100912.59
2023-04-07T09:02:46.141Z,100909.81
2023-04-07T09:05:14.602Z,100914.59
2023-04-07T09:07:43.388Z,100918.19
2023-04-07T09:10:10.705Z,100918.19
2023-04-07T09:12:38.336Z,100922.13
2023-04-07T09:15:09.044Z,100927.28
2023-04-07T09:17:37.069Z,100926.47
2023-04-07T09:20:04.750Z,100937.19
2023-04-07T09:22:42.716Z,100929.53
2023-04-07T09:25:13.810Z,100938.84
2023-04-07T09:27:40.223Z,100934.38
2023-04-07T09:30:18.667Z,100933.94
2023-04-07T09:32:45.431Z,100931.59
2023-04-07T09:35:11.821Z,100935.31
2023-04-07T09:37:38.368Z,100933.69
2023-04-07T09:40:05.229Z,100933.31
2023-04-07T09:42:35.354Z,100940.91
2023-04-07T09:45:02.361Z,100929.72
2023-04-07T09:47:32.821Z,100938.84
2023-04-07T09:50:01.974Z,100933.25
2023-04-07T09:52:49.622Z,100937.81
2023-04-07T09:55:17.217Z,100945.00
2023-04-07T09:57:45.264Z,100945.75
2023-04-07T10:00:12.357Z,100948.53
2023-04-07T10:02:39.042Z,100949.34
2023-04-07T10:05:06.437Z,100948.53
2023-04-07T10:07:32.979Z,100956.56
2023-04-07T10:09:59.318Z,100947.81
2023-04-07T10:12:27.177Z,100951.88
2023-04-07T10:14:55.138Z,100959.09
2023-04-07T10:17:22.630Z,100960.00
2023-04-07T10:19:50.822Z,100966.03
2023-04-07T10:22:17.635Z,100962.91
2023-04-07T10:25:11.237Z,100965.72
2023-04-07T10:27:50.419Z,100968.63
2023-04-07T10:30:29.054Z,100973.41
2023-04-07T10:32:56.120Z,100970.72
2023-04-07T10:35:23.597Z,100969.91
2023-04-07T10:38:22.594Z,100976.19
2023-04-07T10:40:49.169Z,100971.53
2023-04-07T10:43:42.279Z,100976.66
2023-04-07T10:46:08.785Z,100984.00
2023-04-07T10:48:35.248Z,100986.41
2023-04-07T10:51:04.791Z,101000.41
2023-04-07T10:53:31.485Z,100987.59
2023-04-07T10:55:59.279Z,100991.56
2023-04-07T10:58:32.740Z,101005.88
2023-04-07T11:01:08.446Z,101000.66
2023-04-07T11:03:40.159Z,101001.81
2023-04-07T11:06:08.641Z,100998.91
2023-04-07T11:08:36.072Z,100999.59
2023-04-07T11:11:08.864Z,100992.38
2023-04-07T11:13:42.635Z,100998.66
2023-04-07T11:16:09.802Z,101001.94
2023-04-07T11:18:37.379Z,101001.94
2023-04-07T11:21:08.135Z,101006.34
2023-04-07T11:23:39.608Z,101012.31
2023-04-07T11:26:06.176Z,101019.97
2023-04-07T11:28:32.762Z,101014.75
2023-04-07T11:31:00.276Z,101015.91
2023-04-07T11:33:32.041Z,101015.44
2023-04-07T11:36:00.906Z,101026.28
2023-04-07T11:38:38.513Z,101019.06
2023-04-07T11:41:15.743Z,101022.56
2023-04-07T11:43:42.655Z,101038.97
2023-04-07T11:46:14.371Z,101031.31
2023-04-07T11:48:42.827Z,101033.63
2023-04-07T11:51:19.747Z,101031.19
2023-04-07T11:53:47.467Z,101035.72
2023-04-07T11:56:18.420Z,101043.31
2023-04-07T11:58:52.735Z,101047.28
2023-04-07T12:01:19.678Z,101046.09
2023-04-07T12:03:55.834Z,101050.41
2023-04-07T12:06:30.889Z,101053.19
2023-04-07T12:08:57.279Z,101050.50
2023-04-07T12:11:25.422Z,101053.66
2023-04-07T12:13:52.763Z,101054.13
2023-04-07T12:16:20.038Z,101056.91
2023-04-07T12:18:46.411Z,101055.28
2023-04-07T12:21:13.097Z,101054.13
2023-04-07T12:23:39.413Z,101054.94
2023-04-07T12:26:06.222Z,101060.88
2023-04-07T12:28:32.949Z,101064.13
2023-04-07T12:30:59.777Z,101072.19
2023-04-07T12:33:26.416Z,101067.41
2023-04-07T12:35:52.946Z,101063.44
2023-04-07T12:38:19.371Z,101067.84
2023-04-07T12:40:46.524Z,101070.28
2023-04-07T12:43:13.170Z,101071.13
2023-04-07T12:45:39.940Z,101072.25
2023-04-07T12:48:06.403Z,101066.22
2023-04-07T12:50:32.955Z,101076.59
2023-04-07T12:52:59.819Z,101072.50
2023-04-07T12:55:26.345Z,101079.25
2023-04-07T12:57:52.689Z,101084.03
2023-04-07T13:00:19.127Z,101080.44
2023-04-07T13:02:45.614Z,101086.84
2023-04-07T13:05:12.897Z,101088.00
2023-04-07T13:07:39.472Z,101086.03
2023-04-07T13:10:08.368Z,101081.63
2023-04-07T13:12:35.423Z,101082.44
2023-04-07T13:15:02.030Z,101082.44
2023-04-07T13:17:28.831Z,101081.63
2023-04-07T13:19:56.405Z,101082.44
2023-04-07T13:22:24.618Z,101090.44
2023-04-07T13:24:51.645Z,101096.47
2023-04-07T13:27:18.222Z,101094.97
2023-04-07T13:29:44.882Z,101091.00
2023-04-07T13:32:15.432Z,101094.28
2023-04-07T13:34:42.317Z,101093.13
2023-04-07T13:37:08.738Z,101092.78
2023-04-07T13:39:35.044Z,101096.38
2023-04-07T13:42:01.935Z,101102.47
2023-04-07T13:44:29.140Z,101107.69
2023-04-07T13:46:58.778Z,101108.97
2023-04-07T13:49:25.311Z,101099.41
2023-04-07T13:51:51.883Z,101102.66
2023-04-07T13:54:18.763Z,101102.66
2023-04-07T13:56:45.515Z,101111.84
2023-04-07T13:59:12.073Z,101103.47
2023-04-07T14:01:39.674Z,101108.72
2023-04-07T14:04:06.647Z,101105.94
2023-04-07T14:06:33.403Z,101108.34
2023-04-07T14:08:59.767Z,101111.16
2023-04-07T14:11:26.307Z,101105.94
2023-04-07T14:13:53.367Z,101104.75
2023-04-07T14:16:21.056Z,101104.38
2023-04-07T14:18:47.489Z,101106.81
2023-04-07T14:21:13.910Z,101105.19
2023-04-07T14:23:40.315Z,101104.03
2023-04-07T14:26:10.577Z,101094.50
2023-04-07T14:28:37.212Z,101104.16
2023-04-07T14:31:03.743Z,101096.22
2023-04-07T14:33:30.538Z,101105.50
2023-04-07T14:35:57.703Z,101099.22
2023-04-07T14:38:25.654Z,101110.53
2023-04-07T14:40:52.896Z,101101.41
2023-04-07T14:43:19.583Z,101107.09
2023-04-07T14:45:46.082Z,101113.25
2023-04-07T14:48:13.514Z,101111.75
2023-04-07T14:50:40.313Z,101109.06
2023-04-07T14:53:06.820Z,101114.72
2023-04-07T14:55:33.483Z,101116.00
2023-04-07T14:58:00.318Z,101117.28
2023-04-07T15:00:28.608Z,101122.16
2023-04-07T15:02:55.837Z,101113.41
2023-04-07T15:05:27.864Z,101127.06
2023-04-07T15:07:54.408Z,101128.69
2023-04-07T15:10:21.381Z,101123.53
2023-04-07T15:12:48.710Z,101123.19
2023-04-07T15:15:16.209Z,101130.41
2023-04-07T15:17:44.964Z,101128.06
2023-04-07T15:20:12.867Z,101124.91
2023-04-07T15:22:39.530Z,101130.59
2023-04-07T15:25:06.122Z,101130.25
2023-04-07T15:27:32.783Z,101133.13
2023-04-07T15:29:59.424Z,101126.38
2023-04-07T15:32:26.028Z,101132.06
2023-04-07T15:34:52.396Z,101128.91
2023-04-07T15:37:19.330Z,101129.81
2023-04-07T15:39:45.761Z,101128.66
2023-04-07T15:42:12.827Z,101128.28
2023-04-07T15:44:39.921Z,101133.53
2023-04-07T15:47:07.034Z,101132.81
2023-04-07T15:49:34.655Z,101134.06
2023-04-07T15:52:03.920Z,101135.34
2023-04-07T15:54:30.806Z,101130.22
2023-04-07T15:56:57.215Z,101135.13
2023-04-07T15:59:23.771Z,101138.00
2023-04-07T16:01:50.833Z,101143.25
2023-04-07T16:04:17.375Z,101138.13
2023-04-07T16:06:43.753Z,101139.38
2023-04-07T16:09:10.394Z,101139.81
2023-04-07T16:11:36.779Z,101145.88
2023-04-07T16:14:03.430Z,101146.31
2023-04-07T16:16:31.437Z,101145.97
2023-04-07T16:18:57.873Z,101144.78
2023-04-07T16:21:24.205Z,101151.66
2023-04-07T16:23:51.027Z,101156.09
2023-04-07T16:26:17.510Z,101151.31
2023-04-07T16:28:44.219Z,101153.75
2023-04-07T16:31:12.262Z,101144.53
2023-04-07T16:33:39.252Z,101146.97
2023-04-07T16:36:08.664Z,101148.13
2023-04-07T16:38:35.167Z,101155.03
2023-04-07T16:41:04.898Z,101152.22
2023-04-07T16:43:31.775Z,101157.81
2023-04-07T16:46:00.056Z,101169.84
2023-04-07T16:48:26.652Z,101172.63
2023-04-07T16:50:53.241Z,101176.34
2023-04-07T16:53:21.220Z,101177.06
2023-04-07T16:55:48.672Z,101174.97
2023-04-07T16:58:18.862Z,101184.94
2023-04-07T17:00:45.810Z,101188.91
2023-04-07T17:03:15.151Z,101188.44
2023-04-07T17:05:42.074Z,101192.41
2023-04-07T17:08:08.404Z,101198.03
2023-04-07T17:10:34.798Z,101186.34
2023-04-07T17:13:01.809Z,101193.59
2023-04-07T17:15:28.256Z,101197.22
2023-04-07T17:17:55.000Z,101196.41
2023-04-07T17:20:22.578Z,101197.22
2023-04-07T17:22:49.134Z,101199.63
2023-04-07T17:25:18.853Z,101201.63
2023-04-07T17:27:48.140Z,101217.25
2023-04-07T17:30:15.002Z,101222.84
2023-04-07T17:32:41.492Z,101219.25
2023-04-07T17:35:08.271Z,101231.63
2023-04-07T17:37:34.686Z,101234.06
2023-04-07T17:40:01.876Z,101238.03
2023-04-07T17:42:28.345Z,101246.81
2023-04-07T17:44:55.086Z,101244.81
2023-04-07T17:47:21.699Z,101250.75
2023-04-07T17:49:48.411Z,101247.53
2023-04-07T17:52:14.804Z,101250.69
2023-04-07T17:54:41.649Z,101260.25
2023-04-07T17:57:08.794Z,101254.19
2023-04-07T17:59:36.758Z,101256.53
2023-04-07T18:02:08.774Z,101261.69
2023-04-07T18:04:40.246Z,101264.47
2023-04-07T18:07:07.193Z,101262.03
2023-04-07T18:09:33.905Z,101272.44
2023-04-07T18:12:02.697Z,101270.81
2023-04-07T18:14:29.297Z,101275.94
2023-04-07T18:16:56.023Z,101277.09
2023-04-07T18:19:25.779Z,101275.81
2023-04-07T18:21:53.418Z,101278.97
2023-04-07T18:24:20.885Z,101285.72
2023-04-07T18:26:47.681Z,101279.66
2023-04-07T18:29:14.764Z,101291.69
2023-04-07T18:31:44.085Z,101292.41
2023-04-07T18:34:11.404Z,101298.81
2023-04-07T18:36:40.688Z,101290.78
2023-04-07T18:39:07.521Z,101295.56
2023-04-07T18:41:34.085Z,101309.09
2023-04-07T18:44:00.744Z,101312.25
2023-04-07T18:46:27.692Z,101300.25
2023-04-07T18:48:54.241Z,101315.41
2023-04-07T18:51:20.947Z,101314.13
2023-04-07T18:53:47.612Z,101314.13
2023-04-07T18:56:14.265Z,101315.66
2023-04-07T18:58:45.067Z,101320.41
2023-04-07T19:01:13.446Z,101323.56
2023-04-07T19:03:41.914Z,101328.38
2023-04-07T19:06:09.183Z,101333.16
2023-04-07T19:08:36.538Z,101330.72
2023-04-07T19:11:03.553Z,101339.44
2023-04-07T19:13:29.968Z,101343.41
2023-04-07T19:15:56.495Z,101343.78
2023-04-07T19:18:23.074Z,101347.75
2023-04-07T19:20:49.672Z,101347.28
2023-04-07T19:23:16.035Z,101346.47
2023-04-07T19:25:45.466Z,101354.41
2023-04-07T19:28:12.487Z,101356.34
2023-04-07T19:30:39.483Z,101355.53
2023-04-07T19:33:06.737Z,101350.31
2023-04-07T19:35:33.400Z,101351.00
2023-04-07T19:38:00.143Z,101353.00
2023-04-07T19:40:26.494Z,101361.38
2023-04-07T19:42:54.678Z,101369.31
2023-04-07T19:45:21.331Z,101362.44
2023-04-07T19:47:48.299Z,101364.78
2023-04-07T19:50:14.939Z,101370.38
2023-04-07T19:52:43.807Z,101369.09
2023-04-07T19:55:10.925Z,101370.63
2023-04-07T19:57:38.343Z,101374.59
2023-04-07T20:00:04.986Z,101383.66
2023-04-07T20:02:32.478Z,101380.88
2023-04-07T20:04:58.894Z,101384.34
2023-04-07T20:07:25.226Z,101385.19
2023-04-07T20:09:54.066Z,101390.31
2023-04-07T20:12:21.197Z,101390.31
2023-04-07T20:14:47.823Z,101387.88
2023-04-07T20:17:14.717Z,101387.06
2023-04-07T20:19:41.454Z,101391.00
2023-04-07T20:22:08.850Z,101393.69
2023-04-07T20:24:35.768Z,101394.50
2023-04-07T20:27:02.200Z,101394.03
2023-04-07T20:29:28.553Z,101397.66
2023-04-07T20:31:54.958Z,101404.75
2023-04-07T20:34:21.889Z,101399.53
2023-04-07T20:36:51.429Z,101408.25
2023-04-07T20:39:17.805Z,101407.44
2023-04-07T20:41:45.438Z,101408.59
2023-04-07T20:44:12.363Z,101412.91
2023-04-07T20:46:38.927Z,101414.56
2023-04-07T20:49:07.677Z,101419.66
2023-04-07T20:51:36.682Z,101415.59
2023-04-07T20:54:03.644Z,101413.97
2023-04-07T20:56:30.215Z,101412.66
2023-04-07T20:58:56.833Z,101428.16
2023-04-07T21:01:24.856Z,101427.69
2023-04-07T21:03:53.390Z,101418.84
2023-04-07T21:06:19.826Z,101423.94
2023-04-07T21:08:46.223Z,101426.41
2023-04-07T21:11:12.842Z,101424.66
2023-04-07T21:13:39.148Z,101432.09
2023-04-07T21:16:05.866Z,101423.94
2023-04-07T21:18:32.310Z,101438.59
2023-04-07T21:21:02.703Z,101430.38
2023-04-07T21:23:31.359Z,101435.03
2023-04-07T21:26:02.202Z,101432.44
2023-04-07T21:28:28.565Z,101432.31
2023-04-07T21:30:56.570Z,101435.31
2023-04-07T21:33:23.021Z,101436.34
2023-04-07T21:35:49.807Z,101434.13
2023-04-07T21:38:17.056Z,101437.59
2023-04-07T21:40:43.615Z,101433.03
2023-04-07T21:43:09.967Z,101434.41
2023-04-07T21:45:36.562Z,101442.16
2023-04-07T21:48:04.517Z,101445.63
2023-04-07T21:50:31.224Z,101437.13
2023-04-07T21:52:57.583Z,101433.38
2023-04-07T21:55:23.988Z,101432.44
2023-04-07T21:57:50.722Z,101425.88
2023-04-07T22:00:18.588Z,101433.31
2023-04-07T22:02:45.556Z,101431.19
2023-04-07T22:05:12.168Z,101425.81
2023-04-07T22:07:38.818Z,101422.06
2023-04-07T22:10:05.820Z,101433.09
2023-04-07T22:12:32.225Z,101424.91
2023-04-07T22:14:58.534Z,101433.13
2023-04-07T22:17:25.673Z,101430.19
2023-04-07T22:19:52.136Z,101440.44
2023-04-07T22:22:18.958Z,101433.06
2023-04-07T22:24:45.351Z,101439.31
2023-04-07T22:27:11.722Z,101439.13
2023-04-07T22:29:38.047Z,101435.03
2023-04-07T22:32:04.606Z,101445.25
2023-04-07T22:34:30.974Z,101441.47
2023-04-07T22:36:58.071Z,101445.78
2023-04-07T22:39:24.468Z,101453.16
2023-04-07T22:41:50.803Z,101449.41
2023-04-07T22:44:17.356Z,101454.84
2023-04-07T22:46:44.869Z,101455.84
2023-04-07T22:49:11.462Z,101461.25
2023-04-07T22:51:38.207Z,101453.88
2023-04-07T22:54:04.687Z,101458.53
2023-04-07T22:56:32.515Z,101456.72
2023-04-07T22:59:05.666Z,101463.31
2023-04-07T23:01:32.591Z,101469.53
2023-04-07T23:03:59.184Z,101466.09
2023-04-07T23:06:28.433Z,101463.50
2023-04-07T23:08:56.032Z,101463.31
2023-04-07T23:11:22.674Z,101465.13
2023-04-07T23:13:49.386Z,101466.63
2023-04-07T23:16:16.177Z,101464.50
2023-04-07T23:18:43.616Z,101469.91
2023-04-07T23:21:10.191Z,101469.75
2023-04-07T23:23:39.208Z,101474.00
2023-04-07T23:26:06.771Z,101481.38
2023-04-07T23:28:33.372Z,101487.63
2023-04-07T23:30:59.858Z,101481.41
2023-04-07T23:33:26.549Z,101479.63
2023-04-07T23:35:53.168Z,101490.59
2023-04-07T23:38:19.480Z,101493.72
2023-04-07T23:40:45.797Z,101501.56
2023-04-07T23:43:12.162Z,101492.72
2023-04-07T23:45:38.631Z,101495.00
2023-04-07T23:48:05.365Z,101494.53
2023-04-07T23:50:32.102Z,101495.16
2023-04-07T23:52:58.685Z,101506.63
2023-04-07T23:55:25.298Z,101502.19
2023-04-07T23:57:51.650Z,101498.91
